createdAt,value
2017-03-23T00:00:29.638Z,29.1
2017-03-23T00:01:38.397Z,28.52
2017-03-23T00:02:47.164Z,29
2017-03-23T00:03:55.878Z,29.1
2017-03-23T00:05:04.834Z,29.1
2017-03-23T00:06:13.548Z,29
2017-03-23T00:07:22.271Z,29.29
2017-03-23T00:08:31.017Z,28.62
2017-03-23T00:09:39.733Z,29
2017-03-23T00:10:48.765Z,29.29
2017-03-23T00:11:57.785Z,29.1
2017-03-23T00:13:06.524Z,29.39
2017-03-23T00:14:15.566Z,29.1
2017-03-23T00:15:24.530Z,29
2017-03-23T00:16:33.600Z,29.1
2017-03-23T00:17:42.354Z,29.49
2017-03-23T00:18:51.423Z,29.1
2017-03-23T00:20:00.159Z,29.1
2017-03-23T00:21:08.856Z,29.2
2017-03-23T00:22:17.578Z,29.39
2017-03-23T00:23:26.340Z,29.1
2017-03-23T00:24:35.106Z,29.29
2017-03-23T00:25:43.870Z,29.29
2017-03-23T00:26:52.932Z,29.2
2017-03-23T00:28:01.678Z,29.1
2017-03-23T00:29:11.005Z,29.2
2017-03-23T00:30:19.770Z,29.1
2017-03-23T00:31:28.537Z,29
2017-03-23T00:32:37.297Z,29.39
2017-03-23T00:33:46.061Z,29.2
2017-03-23T00:34:54.825Z,28.99
2017-03-23T00:36:03.843Z,29
2017-03-23T00:37:12.908Z,28.91
2017-03-23T00:38:21.647Z,29.2
2017-03-23T00:39:30.571Z,28.72
2017-03-23T00:40:39.288Z,29.39
2017-03-23T00:41:48.018Z,29.2
2017-03-23T00:42:57.001Z,29.1
2017-03-23T00:44:05.729Z,29.39
2017-03-23T00:45:14.448Z,28.62
2017-03-23T00:46:23.212Z,29
2017-03-23T00:47:32.109Z,29.29
2017-03-23T00:48:40.913Z,29.29
2017-03-23T00:49:49.970Z,29.49
2017-03-23T00:50:58.735Z,29.29
2017-03-23T00:52:07.497Z,29.1
2017-03-23T00:53:16.265Z,29.47
2017-03-23T00:54:25.026Z,29.18
2017-03-23T00:55:33.784Z,29.39
2017-03-23T00:56:42.689Z,29.47
2017-03-23T00:57:51.743Z,29.28
2017-03-23T00:59:00.499Z,29.47
2017-03-23T01:00:09.265Z,29.47
2017-03-23T01:01:18.257Z,29.38
2017-03-23T01:02:26.974Z,29.47
2017-03-23T01:03:35.708Z,28.89
2017-03-23T01:04:44.726Z,28.99
2017-03-23T01:05:53.477Z,29.1
2017-03-23T01:07:02.243Z,29.47
2017-03-23T01:08:11.007Z,29.47
2017-03-23T01:09:20.053Z,28.89
2017-03-23T01:10:28.815Z,29.58
2017-03-23T01:11:37.571Z,29.66
2017-03-23T01:12:46.560Z,29.08
2017-03-23T01:13:55.470Z,29.66
2017-03-23T01:15:04.811Z,29.08
2017-03-23T01:16:13.575Z,29.66
2017-03-23T01:17:22.309Z,28.89
2017-03-23T01:18:31.046Z,29.57
2017-03-23T01:19:40.074Z,29.66
2017-03-23T01:20:49.390Z,29.47
2017-03-23T01:21:58.132Z,29.66
2017-03-23T01:23:06.848Z,29.66
2017-03-23T01:24:16.212Z,29.38
2017-03-23T01:25:25.277Z,29.28
2017-03-23T01:26:34.011Z,29.38
2017-03-23T01:27:43.028Z,29.57
2017-03-23T01:28:51.786Z,29.57
2017-03-23T01:30:00.565Z,29.18
2017-03-23T01:31:09.521Z,29.76
2017-03-23T01:32:18.255Z,29.38
2017-03-23T01:33:27.265Z,29.47
2017-03-23T01:34:35.996Z,28.99
2017-03-23T01:35:44.991Z,29.76
2017-03-23T01:36:53.717Z,29.57
2017-03-23T01:38:02.481Z,29.66
2017-03-23T01:39:11.541Z,29.66
2017-03-23T01:40:20.295Z,29.38
2017-03-23T01:41:29.064Z,29.66
2017-03-23T01:42:37.824Z,29.66
2017-03-23T01:43:46.577Z,29.76
2017-03-23T01:44:55.594Z,29.57
2017-03-23T01:46:04.363Z,29.47
2017-03-23T01:47:13.123Z,29.66
2017-03-23T01:48:21.883Z,29.76
2017-03-23T01:49:30.940Z,29.76
2017-03-23T01:50:39.681Z,29.76
2017-03-23T01:51:48.399Z,29.76
2017-03-23T01:52:57.165Z,29.86
2017-03-23T01:54:05.927Z,29.76
2017-03-23T01:55:14.687Z,29.76
2017-03-23T01:56:23.438Z,29.76
2017-03-23T01:57:32.188Z,29.66
2017-03-23T01:58:40.942Z,29.76
2017-03-23T01:59:49.961Z,29.76
2017-03-23T02:00:59.026Z,29.28
2017-03-23T02:02:07.931Z,29.57
2017-03-23T02:03:16.692Z,29.57
2017-03-23T02:04:25.748Z,29.86
2017-03-23T02:05:34.511Z,29.95
2017-03-23T02:06:43.272Z,29.95
2017-03-23T02:07:52.036Z,29.66
2017-03-23T02:09:01.096Z,29.76
2017-03-23T02:10:10.126Z,29.95
2017-03-23T02:11:18.886Z,29.66
2017-03-23T02:12:27.646Z,29.66
2017-03-23T02:13:36.410Z,29.66
2017-03-23T02:14:45.210Z,29.66
2017-03-23T02:15:53.989Z,29.66
2017-03-23T02:17:03.043Z,29.66
2017-03-23T02:18:11.807Z,29.76
2017-03-23T02:19:20.573Z,29.57
2017-03-23T02:20:29.340Z,29.95
2017-03-23T02:21:38.101Z,29.66
2017-03-23T02:22:47.161Z,29.66
2017-03-23T02:23:55.931Z,29.95
2017-03-23T02:25:04.665Z,30.05
2017-03-23T02:26:13.382Z,29.57
2017-03-23T02:27:22.138Z,29.95
2017-03-23T02:28:30.908Z,29.66
2017-03-23T02:29:39.673Z,29.66
2017-03-23T02:30:48.409Z,29.95
2017-03-23T02:31:57.131Z,30.05
2017-03-23T02:33:06.162Z,30.04
2017-03-23T02:34:14.924Z,29.66
2017-03-23T02:35:23.891Z,29.46
2017-03-23T02:36:32.654Z,30.05
2017-03-23T02:37:41.418Z,30.05
2017-03-23T02:38:50.151Z,29.47
2017-03-23T02:39:58.869Z,30.04
2017-03-23T02:41:07.603Z,29.94
2017-03-23T02:42:16.321Z,30.13
2017-03-23T02:43:25.081Z,29.46
2017-03-23T02:44:33.807Z,30.05
2017-03-23T02:45:42.735Z,29.46
2017-03-23T02:46:51.648Z,30.04
2017-03-23T02:48:00.379Z,29.84
2017-03-23T02:49:09.065Z,29.55
2017-03-23T02:50:18.093Z,30.13
2017-03-23T02:51:26.865Z,30.13
2017-03-23T02:52:35.628Z,30.22
2017-03-23T02:53:44.374Z,29.46
2017-03-23T02:54:53.132Z,30.13
2017-03-23T02:56:02.192Z,30.13
2017-03-23T02:57:10.951Z,30.04
2017-03-23T02:58:19.719Z,30.04
2017-03-23T02:59:28.458Z,30.13
2017-03-23T03:00:37.147Z,29.94
2017-03-23T03:01:46.176Z,30.04
2017-03-23T03:02:54.935Z,30.32
2017-03-23T03:04:03.693Z,30.04
2017-03-23T03:05:12.463Z,30.04
2017-03-23T03:06:21.223Z,30.13
2017-03-23T03:07:29.984Z,29.84
2017-03-23T03:08:38.721Z,30.32
2017-03-23T03:09:47.743Z,30.22
2017-03-23T03:10:56.469Z,30.13
2017-03-23T03:12:05.186Z,30.04
2017-03-23T03:13:14.250Z,29.84
2017-03-23T03:14:22.990Z,29.94
2017-03-23T03:15:31.679Z,29.84
2017-03-23T03:16:40.396Z,30.13
2017-03-23T03:17:49.662Z,30.13
2017-03-23T03:18:58.477Z,30.13
2017-03-23T03:20:07.237Z,29.84
2017-03-23T03:21:16.000Z,29.94
2017-03-23T03:22:24.757Z,29.94
2017-03-23T03:23:33.500Z,30.13
2017-03-23T03:24:42.214Z,30.04
2017-03-23T03:25:50.975Z,29.84
2017-03-23T03:26:59.735Z,29.84
2017-03-23T03:28:08.799Z,30.13
2017-03-23T03:29:17.553Z,30.04
2017-03-23T03:30:26.301Z,30.04
2017-03-23T03:31:35.064Z,29.55
2017-03-23T03:32:44.429Z,29.65
2017-03-23T03:33:53.192Z,29.55
2017-03-23T03:35:01.950Z,29.55
2017-03-23T03:36:11.019Z,29.55
2017-03-23T03:37:19.759Z,29.65
2017-03-23T03:38:28.478Z,29.65
2017-03-23T03:39:37.227Z,29.74
2017-03-23T03:40:45.992Z,29.74
2017-03-23T03:41:55.428Z,29.74
2017-03-23T03:43:04.225Z,29.94
2017-03-23T03:44:13.288Z,29.84
2017-03-23T03:45:22.041Z,29.94
2017-03-23T03:46:31.107Z,29.65
2017-03-23T03:47:39.872Z,29.94
2017-03-23T03:48:48.630Z,29.65
2017-03-23T03:49:57.693Z,29.74
2017-03-23T03:51:06.922Z,29.74
2017-03-23T03:52:21.729Z,29.65
2017-03-23T03:53:30.807Z,29.94
2017-03-23T03:54:39.581Z,29.94
2017-03-23T03:55:48.349Z,30.04
2017-03-23T03:56:57.181Z,29.55
2017-03-23T03:58:06.242Z,29.94
2017-03-23T03:59:14.980Z,29.55
2017-03-23T04:00:24.312Z,29.84
2017-03-23T04:01:33.091Z,30.13
2017-03-23T04:02:41.838Z,30.13
2017-03-23T04:03:50.576Z,30.22
2017-03-23T04:04:59.402Z,30.04
2017-03-23T04:06:08.178Z,30.22
2017-03-23T04:07:16.957Z,30.13
2017-03-23T04:08:25.740Z,30.22
2017-03-23T04:09:34.519Z,29.84
2017-03-23T04:10:43.297Z,30.13
2017-03-23T04:11:52.069Z,30.32
2017-03-23T04:13:00.822Z,30.13
2017-03-23T04:14:09.547Z,30.52
2017-03-23T04:15:18.368Z,30.13
2017-03-23T04:16:27.125Z,30.52
2017-03-23T04:17:35.868Z,30.22
2017-03-23T04:18:44.950Z,30.61
2017-03-23T04:19:53.730Z,30.13
2017-03-23T04:21:02.505Z,30.13
2017-03-23T04:22:11.375Z,30.13
2017-03-23T04:23:20.125Z,30.32
2017-03-23T04:24:28.859Z,30.32
2017-03-23T04:25:37.942Z,30.71
2017-03-23T04:26:46.725Z,30.32
2017-03-23T04:27:55.672Z,30.52
2017-03-23T04:29:04.712Z,30.42
2017-03-23T04:30:13.826Z,30.13
2017-03-23T04:31:22.915Z,30.04
2017-03-23T04:32:31.646Z,30.61
2017-03-23T04:33:40.723Z,30.22
2017-03-23T04:34:49.474Z,30.32
2017-03-23T04:35:58.256Z,30.22
2017-03-23T04:37:07.338Z,30.13
2017-03-23T04:38:16.119Z,30.13
2017-03-23T04:39:24.888Z,29.84
2017-03-23T04:40:33.659Z,29.74
2017-03-23T04:41:42.446Z,30.22
2017-03-23T04:42:51.218Z,30.22
2017-03-23T04:43:59.998Z,29.74
2017-03-23T04:45:08.748Z,30.22
2017-03-23T04:46:17.805Z,29.83
2017-03-23T04:47:26.514Z,30.04
2017-03-23T04:48:35.344Z,30.13
2017-03-23T04:49:44.119Z,30.13
2017-03-23T04:50:53.280Z,30.04
2017-03-23T04:52:02.035Z,29.94
2017-03-23T04:53:11.073Z,29.84
2017-03-23T04:54:20.463Z,30.13
2017-03-23T04:55:29.525Z,30.04
2017-03-23T04:56:38.534Z,29.94
2017-03-23T04:57:47.268Z,29.84
2017-03-23T04:58:56.019Z,29.84
2017-03-23T05:00:04.727Z,30.13
2017-03-23T05:01:13.468Z,30.22
2017-03-23T05:02:22.247Z,30.22
2017-03-23T05:03:31.023Z,30.13
2017-03-23T05:04:40.411Z,30.13
2017-03-23T05:05:49.446Z,30.13
2017-03-23T05:06:58.523Z,29.84
2017-03-23T05:08:07.271Z,30.04
2017-03-23T05:09:16.305Z,30.13
2017-03-23T05:10:25.077Z,30.13
2017-03-23T05:11:33.860Z,30.22
2017-03-23T05:12:42.632Z,30.22
2017-03-23T05:13:51.419Z,30.13
2017-03-23T05:15:00.750Z,30.13
2017-03-23T05:16:09.521Z,30.04
2017-03-23T05:17:18.572Z,29.94
2017-03-23T05:18:27.303Z,30.04
2017-03-23T05:19:36.373Z,30.13
2017-03-23T05:20:45.154Z,29.94
2017-03-23T05:21:53.907Z,30.13
2017-03-23T05:23:02.635Z,30.04
2017-03-23T05:24:11.404Z,29.94
2017-03-23T05:25:20.183Z,29.84
2017-03-23T05:26:28.939Z,29.94
2017-03-23T05:27:37.710Z,29.55
2017-03-23T05:28:46.483Z,29.55
2017-03-23T05:29:55.260Z,29.94
2017-03-23T05:31:04.034Z,29.65
2017-03-23T05:32:12.809Z,29.94
2017-03-23T05:33:21.549Z,29.84
2017-03-23T05:34:30.280Z,29.65
2017-03-23T05:35:39.363Z,29.74
2017-03-23T05:36:48.427Z,29.55
2017-03-23T05:37:57.156Z,29.65
2017-03-23T05:39:05.936Z,29.65
2017-03-23T05:40:14.715Z,29.55
2017-03-23T05:41:23.762Z,29.55
2017-03-23T05:42:32.470Z,29.55
2017-03-23T05:43:41.401Z,29.74
2017-03-23T05:44:50.475Z,29.74
2017-03-23T05:45:59.555Z,29.27
2017-03-23T05:47:08.327Z,29.76
2017-03-23T05:48:17.075Z,29.76
2017-03-23T05:49:25.811Z,29.28
2017-03-23T05:50:34.585Z,29.65
2017-03-23T05:51:43.362Z,29.47
2017-03-23T05:52:52.549Z,29.47
2017-03-23T05:54:01.329Z,29.57
2017-03-23T05:55:10.097Z,29.38
2017-03-23T05:56:18.850Z,28.99
2017-03-23T05:57:27.586Z,29.38
2017-03-23T05:58:36.359Z,29.28
2017-03-23T05:59:45.138Z,29.47
2017-03-23T06:00:53.885Z,29.38
2017-03-23T06:02:02.929Z,29.38
2017-03-23T06:03:11.710Z,29.18
2017-03-23T06:04:20.793Z,29.47
2017-03-23T06:05:29.883Z,29.47
2017-03-23T06:06:38.640Z,28.61
2017-03-23T06:07:47.688Z,29.18
2017-03-23T06:08:56.465Z,29.18
2017-03-23T06:10:05.228Z,28.89
2017-03-23T06:11:14.265Z,29.18
2017-03-23T06:12:23.347Z,28.8
2017-03-23T06:13:32.140Z,29.08
2017-03-23T06:14:41.839Z,28.89
2017-03-23T06:15:50.618Z,28.51
2017-03-23T06:16:59.411Z,28.61
2017-03-23T06:18:08.178Z,28.51
2017-03-23T06:19:16.958Z,28.91
2017-03-23T06:20:26.306Z,28.52
2017-03-23T06:21:35.364Z,28.72
2017-03-23T06:22:44.103Z,28.72
2017-03-23T06:23:52.875Z,28.72
2017-03-23T06:25:01.652Z,29.1
2017-03-23T06:26:11.037Z,28.72
2017-03-23T06:27:20.092Z,29
2017-03-23T06:28:28.838Z,29
2017-03-23T06:29:37.589Z,28.72
2017-03-23T06:30:46.524Z,28.72
2017-03-23T06:31:55.301Z,28.52
2017-03-23T06:33:04.077Z,28.72
2017-03-23T06:34:12.857Z,28.72
2017-03-23T06:35:21.639Z,28.72
2017-03-23T06:36:31.020Z,28.72
2017-03-23T06:37:39.803Z,28.72
2017-03-23T06:38:48.577Z,28.52
2017-03-23T06:39:57.326Z,28.52
2017-03-23T06:41:06.569Z,28.33
2017-03-23T06:42:15.358Z,28.34
2017-03-23T06:43:24.129Z,28.62
2017-03-23T06:44:32.909Z,28.33
2017-03-23T06:45:41.970Z,28.52
2017-03-23T06:46:50.745Z,28.52
2017-03-23T06:47:59.517Z,28.52
2017-03-23T06:49:08.602Z,28.33
2017-03-23T06:50:17.676Z,28.33
2017-03-23T06:51:26.756Z,28.14
2017-03-23T06:52:35.493Z,28.25
2017-03-23T06:53:44.224Z,28.15
2017-03-23T06:54:53.590Z,28.05
2017-03-23T06:56:02.629Z,28.44
2017-03-23T06:57:11.407Z,27.57
2017-03-23T06:58:20.343Z,27.76
2017-03-23T06:59:29.080Z,27.67
2017-03-23T07:00:38.061Z,27.57
2017-03-23T07:01:46.871Z,27.76
2017-03-23T07:02:55.648Z,27.67
2017-03-23T07:04:04.422Z,27.68
2017-03-23T07:05:13.204Z,27.29
2017-03-23T07:06:22.586Z,27.49
2017-03-23T07:07:31.676Z,27.29
2017-03-23T07:08:40.755Z,27.29
2017-03-23T07:09:49.547Z,27.29
2017-03-23T07:10:59.203Z,27.2
2017-03-23T07:12:07.945Z,27.01
2017-03-23T07:13:16.729Z,26.72
2017-03-23T07:14:25.507Z,26.92
2017-03-23T07:15:34.583Z,26.64
2017-03-23T07:16:43.354Z,26.54
2017-03-23T07:17:52.130Z,26.92
2017-03-23T07:19:01.457Z,26.34
2017-03-23T07:20:10.231Z,26.54
2017-03-23T07:21:19.008Z,26.07
2017-03-23T07:22:28.137Z,25.39
2017-03-23T07:23:36.915Z,26.07
2017-03-23T07:24:45.724Z,25.89
2017-03-23T07:25:54.799Z,25.21
2017-03-23T07:27:03.571Z,25.31
2017-03-23T07:28:12.343Z,25.02
2017-03-23T07:29:21.081Z,24.92
2017-03-23T07:30:30.171Z,24.93
2017-03-23T07:31:39.255Z,24.74
2017-03-23T07:32:48.612Z,24.55
2017-03-23T07:33:57.987Z,23.98
2017-03-23T07:35:07.634Z,23.69
2017-03-23T07:36:16.727Z,23.5
2017-03-23T07:37:25.504Z,23.88
2017-03-23T07:38:34.593Z,23.3
2017-03-23T07:39:43.675Z,23.32
2017-03-23T07:40:52.435Z,23.12
2017-03-23T07:42:01.268Z,23.22
2017-03-23T07:43:10.050Z,23.02
2017-03-23T07:44:19.079Z,23.02
2017-03-23T07:45:27.816Z,23.23
2017-03-23T07:46:36.591Z,22.84
2017-03-23T07:47:45.367Z,22.65
2017-03-23T07:48:54.152Z,22.45
2017-03-23T07:50:02.937Z,22.36
2017-03-23T07:51:11.723Z,22.66
2017-03-23T07:52:20.501Z,22.37
2017-03-23T07:53:29.278Z,22.66
2017-03-23T07:54:38.048Z,22.66
2017-03-23T07:55:46.827Z,22.56
2017-03-23T07:56:55.605Z,22.66
2017-03-23T07:58:04.387Z,22.37
2017-03-23T07:59:13.169Z,22.85
2017-03-23T08:00:22.286Z,22.37
2017-03-23T08:01:31.069Z,22.56
2017-03-23T08:02:39.882Z,22.56
2017-03-23T08:03:48.662Z,22.66
2017-03-23T08:04:57.897Z,22.66
2017-03-23T08:06:06.665Z,22.66
2017-03-23T08:07:16.014Z,22.85
2017-03-23T08:08:24.792Z,22.75
2017-03-23T08:09:33.876Z,22.85
2017-03-23T08:10:42.626Z,22.94
2017-03-23T08:11:51.667Z,23.23
2017-03-23T08:13:00.923Z,23.03
2017-03-23T08:14:09.812Z,23.05
2017-03-23T08:15:18.544Z,23.03
2017-03-23T08:16:27.638Z,23.33
2017-03-23T08:17:36.418Z,23.03
2017-03-23T08:18:45.197Z,22.95
2017-03-23T08:19:53.973Z,22.84
2017-03-23T08:21:03.059Z,23.13
2017-03-23T08:22:12.135Z,23.05
2017-03-23T08:23:21.120Z,23.14
2017-03-23T08:24:29.900Z,23.05
2017-03-23T08:25:38.683Z,23.33
2017-03-23T08:26:47.441Z,23.14
2017-03-23T08:27:56.149Z,22.95
2017-03-23T08:29:04.890Z,22.85
2017-03-23T08:30:13.643Z,23.14
2017-03-23T08:31:22.378Z,22.95
2017-03-23T08:32:31.155Z,22.66
2017-03-23T08:33:39.933Z,22.85
2017-03-23T08:34:49.012Z,22.85
2017-03-23T08:35:58.094Z,22.85
2017-03-23T08:37:07.184Z,22.95
2017-03-23T08:38:15.973Z,22.66
2017-03-23T08:39:25.058Z,22.66
2017-03-23T08:40:33.830Z,22.75
2017-03-23T08:41:42.923Z,22.56
2017-03-23T08:42:52.005Z,22.56
2017-03-23T08:44:00.820Z,22.56
2017-03-23T08:45:09.902Z,22.77
2017-03-23T08:46:19.324Z,22.38
2017-03-23T08:47:28.098Z,22.86
2017-03-23T08:48:37.182Z,22.38
2017-03-23T08:49:45.958Z,22.77
2017-03-23T08:50:55.247Z,22.77
2017-03-23T08:52:03.999Z,22.77
2017-03-23T08:53:12.742Z,22.96
2017-03-23T08:54:21.524Z,22.57
2017-03-23T08:55:30.608Z,22.86
2017-03-23T08:56:39.703Z,22.57
2017-03-23T08:57:48.482Z,22.38
2017-03-23T08:58:57.558Z,22.28
2017-03-23T09:00:06.641Z,22.19
2017-03-23T09:01:15.421Z,22.58
2017-03-23T09:02:24.202Z,22.57
2017-03-23T09:03:32.986Z,22.1
2017-03-23T09:04:41.763Z,22.1
2017-03-23T09:05:50.554Z,22
2017-03-23T09:06:59.343Z,22.2
2017-03-23T09:08:08.743Z,22
2017-03-23T09:09:17.529Z,21.81
2017-03-23T09:10:26.625Z,21.81
2017-03-23T09:11:35.609Z,21.61
2017-03-23T09:12:44.387Z,21.62
2017-03-23T09:13:53.179Z,21.43
2017-03-23T09:15:01.962Z,21.14
2017-03-23T09:16:11.055Z,21.15
2017-03-23T09:17:20.114Z,20.76
2017-03-23T09:18:28.826Z,20.19
2017-03-23T09:19:37.569Z,19.52
2017-03-23T09:20:46.349Z,18.75
2017-03-23T09:21:55.739Z,18.19
2017-03-23T09:23:04.831Z,17.42
2017-03-23T09:24:13.608Z,16.85
2017-03-23T09:25:22.362Z,16.17
2017-03-23T09:26:31.716Z,16.19
2017-03-23T09:27:40.496Z,15.22
2017-03-23T09:28:49.279Z,14.93
2017-03-23T09:29:58.054Z,14.75
2017-03-23T09:31:07.140Z,14.26
2017-03-23T09:32:16.743Z,13.59
2017-03-23T09:33:25.530Z,13.4
2017-03-23T09:34:34.611Z,13.12
2017-03-23T09:35:43.698Z,12.63
2017-03-23T09:36:52.476Z,12.44
2017-03-23T09:38:01.860Z,12.15
2017-03-23T09:39:10.952Z,11.86
2017-03-23T09:40:19.728Z,11.96
2017-03-23T09:41:28.484Z,11.48
2017-03-23T09:42:38.446Z,11.58
2017-03-23T09:43:47.222Z,11.29
2017-03-23T09:44:56.348Z,11.88
2017-03-23T09:46:05.123Z,11.97
2017-03-23T09:47:13.904Z,11.48
2017-03-23T09:48:22.686Z,11.49
2017-03-23T09:49:31.443Z,11.38
2017-03-23T09:50:40.159Z,11.1
2017-03-23T09:51:48.908Z,11.59
2017-03-23T09:52:57.990Z,11.2
2017-03-23T09:54:06.780Z,10.71
2017-03-23T09:55:15.870Z,10.61
2017-03-23T09:56:24.958Z,11.3
2017-03-23T09:57:33.741Z,11.4
2017-03-23T09:58:42.530Z,11.39
2017-03-23T09:59:51.280Z,11.79
2017-03-23T10:01:00.866Z,11.88
2017-03-23T10:02:09.655Z,12.36
2017-03-23T10:03:18.449Z,12.94
2017-03-23T10:04:27.534Z,12.55
2017-03-23T10:05:36.317Z,12.15
2017-03-23T10:06:45.079Z,11.87
2017-03-23T10:07:53.826Z,11.29
2017-03-23T10:09:02.687Z,10.8
2017-03-23T10:10:11.749Z,10.61
2017-03-23T10:11:20.734Z,10.61
2017-03-23T10:12:29.509Z,10.61
2017-03-23T10:13:38.488Z,10.61
2017-03-23T10:14:47.238Z,10.22
2017-03-23T10:15:56.183Z,9.83
2017-03-23T10:17:04.938Z,9.75
2017-03-23T10:18:14.034Z,9.25
2017-03-23T10:19:22.820Z,8.96
2017-03-23T10:20:31.908Z,9.16
2017-03-23T10:21:41.175Z,9.06
2017-03-23T10:22:49.917Z,8.87
2017-03-23T10:23:58.691Z,8.48
2017-03-23T10:25:07.467Z,8.29
2017-03-23T10:26:16.556Z,8
2017-03-23T10:27:25.343Z,7.9
2017-03-23T10:28:34.126Z,7.7
2017-03-23T10:29:42.911Z,7.81
2017-03-23T10:30:51.716Z,7.51
2017-03-23T10:32:00.507Z,7.42
2017-03-23T10:33:09.286Z,6.92
2017-03-23T10:34:18.072Z,7.22
2017-03-23T10:35:26.857Z,6.83
2017-03-23T10:36:35.639Z,6.53
2017-03-23T10:37:44.732Z,6.44
2017-03-23T10:38:53.522Z,6.34
2017-03-23T10:40:02.600Z,6.54
2017-03-23T10:41:11.348Z,6.54
2017-03-23T10:42:20.134Z,6.24
2017-03-23T10:43:28.913Z,6.15
2017-03-23T10:44:37.701Z,6.24
2017-03-23T10:45:46.483Z,6.35
2017-03-23T10:46:55.611Z,6.35
2017-03-23T10:48:04.432Z,6.15
2017-03-23T10:49:13.216Z,6.25
2017-03-23T10:50:21.971Z,6.25
2017-03-23T10:51:30.714Z,6.05
2017-03-23T10:52:39.509Z,6.35
2017-03-23T10:53:48.294Z,6.05
2017-03-23T10:54:57.390Z,6.15
2017-03-23T10:56:06.148Z,6.15
2017-03-23T10:57:15.198Z,5.86
2017-03-23T10:58:24.284Z,5.56
2017-03-23T10:59:33.050Z,5.76
2017-03-23T11:00:42.113Z,5.66
2017-03-23T11:01:50.890Z,5.46
2017-03-23T11:02:59.672Z,5.27
2017-03-23T11:04:08.425Z,5.27
2017-03-23T11:05:17.167Z,5.47
2017-03-23T11:06:25.946Z,4.97
2017-03-23T11:07:34.732Z,5.07
2017-03-23T11:08:43.514Z,4.97
2017-03-23T11:09:52.313Z,5.07
2017-03-23T11:11:01.078Z,5.18
2017-03-23T11:12:09.815Z,4.78
2017-03-23T11:13:18.606Z,4.48
2017-03-23T11:14:27.399Z,4.28
2017-03-23T11:15:36.178Z,4.58
2017-03-23T11:16:44.971Z,4.78
2017-03-23T11:17:54.085Z,4.49
2017-03-23T11:19:02.806Z,4.08
2017-03-23T11:20:11.853Z,4.58
2017-03-23T11:21:20.935Z,4.38
2017-03-23T11:22:29.695Z,4.28
2017-03-23T11:23:38.445Z,4.28
2017-03-23T11:24:47.233Z,4.28
2017-03-23T11:25:56.019Z,4.19
2017-03-23T11:27:04.808Z,4.19
2017-03-23T11:28:13.585Z,3.79
2017-03-23T11:29:22.367Z,3.69
2017-03-23T11:30:31.122Z,3.89
2017-03-23T11:31:39.858Z,3.59
2017-03-23T11:32:48.643Z,3.59
2017-03-23T11:33:57.395Z,3.49
2017-03-23T11:35:06.143Z,3.59
2017-03-23T11:36:14.928Z,3.49
2017-03-23T11:37:23.714Z,3.69
2017-03-23T11:38:32.505Z,3.59
2017-03-23T11:39:41.289Z,3.39
2017-03-23T11:40:50.253Z,3.3
2017-03-23T11:41:59.044Z,3.3
2017-03-23T11:43:07.822Z,3.2
2017-03-23T11:44:16.886Z,3.5
2017-03-23T11:45:25.934Z,3.5
2017-03-23T11:46:34.692Z,3.3
2017-03-23T11:47:43.783Z,3
2017-03-23T11:48:52.559Z,3.3
2017-03-23T11:50:01.333Z,3.5
2017-03-23T11:51:10.126Z,3.2
2017-03-23T11:52:18.916Z,3.1
2017-03-23T11:53:27.703Z,3.2
2017-03-23T11:54:36.481Z,3.2
2017-03-23T11:55:45.272Z,3.4
2017-03-23T11:56:54.368Z,3.1
2017-03-23T11:58:03.463Z,3.3
2017-03-23T11:59:12.254Z,3.2
2017-03-23T12:00:21.040Z,2.9
2017-03-23T12:01:30.128Z,3.2
2017-03-23T12:02:39.225Z,3.5
2017-03-23T12:03:48.318Z,3.79
2017-03-23T12:04:57.099Z,4.39
2017-03-23T12:06:06.199Z,4.98
2017-03-23T12:07:14.991Z,5.47
2017-03-23T12:08:23.751Z,5.76
2017-03-23T12:09:32.502Z,6.45
2017-03-23T12:10:41.597Z,6.93
2017-03-23T12:11:50.693Z,7.23
2017-03-23T12:12:59.476Z,7.71
2017-03-23T12:14:08.270Z,8.3
2017-03-23T12:15:17.058Z,8.49
2017-03-23T12:16:25.839Z,9.08
2017-03-23T12:17:34.623Z,9.27
2017-03-23T12:18:43.495Z,10.05
2017-03-23T12:19:52.284Z,10.63
2017-03-23T12:21:01.073Z,10.63
2017-03-23T12:22:09.829Z,11.01
2017-03-23T12:23:18.569Z,11.69
2017-03-23T12:24:27.310Z,11.59
2017-03-23T12:25:36.132Z,12.07
2017-03-23T12:26:44.893Z,12.07
2017-03-23T12:27:53.639Z,12.45
2017-03-23T12:29:02.625Z,12.65
2017-03-23T12:30:11.669Z,13.13
2017-03-23T12:31:20.759Z,13.71
2017-03-23T12:32:29.541Z,13.51
2017-03-23T12:33:38.326Z,13.9
2017-03-23T12:34:47.105Z,14.18
2017-03-23T12:35:55.864Z,14.09
2017-03-23T12:37:04.917Z,14.77
2017-03-23T12:38:13.697Z,15.06
2017-03-23T12:39:22.459Z,15.15
2017-03-23T12:40:31.502Z,15.44
2017-03-23T12:41:40.290Z,15.63
2017-03-23T12:42:49.080Z,15.92
2017-03-23T12:43:57.859Z,16.11
2017-03-23T12:45:06.941Z,16.31
2017-03-23T12:46:15.719Z,15.81
2017-03-23T12:47:24.503Z,16.39
2017-03-23T12:48:33.609Z,16.39
2017-03-23T12:49:42.401Z,17.07
2017-03-23T12:50:51.186Z,16.88
2017-03-23T12:51:59.971Z,17.07
2017-03-23T12:53:09.059Z,17.35
2017-03-23T12:54:18.152Z,17.25
2017-03-23T12:55:26.936Z,17.15
2017-03-23T12:56:35.714Z,17.64
2017-03-23T12:57:44.472Z,17.54
2017-03-23T12:58:53.254Z,17.83
2017-03-23T13:00:02.038Z,18.21
2017-03-23T13:01:10.822Z,18.02
2017-03-23T13:02:20.216Z,18.31
2017-03-23T13:03:29.301Z,18.31
2017-03-23T13:04:38.086Z,18.21
2017-03-23T13:05:46.867Z,18.88
2017-03-23T13:06:55.951Z,18.7
2017-03-23T13:08:05.009Z,19.08
2017-03-23T13:09:13.724Z,19.37
2017-03-23T13:10:22.450Z,19.08
2017-03-23T13:11:31.190Z,19.17
2017-03-23T13:12:40.009Z,19.27
2017-03-23T13:13:49.090Z,19.07
2017-03-23T13:14:57.870Z,19.75
2017-03-23T13:16:07.283Z,19.65
2017-03-23T13:17:16.076Z,19.95
2017-03-23T13:18:24.865Z,19.94
2017-03-23T13:19:33.820Z,19.74
2017-03-23T13:20:43.150Z,20.23
2017-03-23T13:21:51.893Z,20.23
2017-03-23T13:23:01.290Z,20.23
2017-03-23T13:24:10.067Z,19.94
2017-03-23T13:25:18.853Z,20.23
2017-03-23T13:26:27.616Z,20.61
2017-03-23T13:27:36.652Z,20.12
2017-03-23T13:28:45.745Z,20.22
2017-03-23T13:29:54.530Z,20.9
2017-03-23T13:31:03.817Z,20.71
2017-03-23T13:32:12.576Z,20.5
2017-03-23T13:33:21.315Z,20.89
2017-03-23T13:34:30.693Z,21
2017-03-23T13:35:39.736Z,20.89
2017-03-23T13:36:48.492Z,21.09
2017-03-23T13:37:57.542Z,20.99
2017-03-23T13:39:06.299Z,20.89
2017-03-23T13:40:15.017Z,21.18
2017-03-23T13:41:24.097Z,21.09
2017-03-23T13:42:32.884Z,21.28
2017-03-23T13:43:41.975Z,21.18
2017-03-23T13:44:50.760Z,21.56
2017-03-23T13:45:59.516Z,21.66
2017-03-23T13:47:08.254Z,21.56
2017-03-23T13:48:17.036Z,21.56
2017-03-23T13:49:25.814Z,21.75
2017-03-23T13:50:34.596Z,21.85
2017-03-23T13:51:43.374Z,21.85
2017-03-23T13:52:52.125Z,21.47
2017-03-23T13:54:00.962Z,21.85
2017-03-23T13:55:10.037Z,21.75
2017-03-23T13:56:18.814Z,22.24
2017-03-23T13:57:27.591Z,21.85
2017-03-23T13:58:36.677Z,22.05
2017-03-23T13:59:45.767Z,22.14
2017-03-23T14:00:54.551Z,22.24
2017-03-23T14:02:03.638Z,22.05
2017-03-23T14:03:12.419Z,22.03
2017-03-23T14:04:21.195Z,22.72
2017-03-23T14:05:29.970Z,22.03
2017-03-23T14:06:38.747Z,22.42
2017-03-23T14:07:47.567Z,22.23
2017-03-23T14:08:56.350Z,22.81
2017-03-23T14:10:05.230Z,22.62
2017-03-23T14:11:14.316Z,23
2017-03-23T14:12:23.300Z,22.62
2017-03-23T14:13:32.081Z,22.72
2017-03-23T14:14:40.915Z,23
2017-03-23T14:15:49.705Z,23.2
2017-03-23T14:16:58.721Z,23.09
2017-03-23T14:18:07.800Z,23.28
2017-03-23T14:19:16.579Z,23.28
2017-03-23T14:20:25.641Z,23.09
2017-03-23T14:21:34.392Z,23.19
2017-03-23T14:22:43.741Z,23.38
2017-03-23T14:23:52.829Z,23.19
2017-03-23T14:25:01.953Z,23.09
2017-03-23T14:26:11.049Z,23.09
2017-03-23T14:27:19.800Z,23.28
2017-03-23T14:28:28.512Z,23.28
2017-03-23T14:29:37.868Z,23.28
2017-03-23T14:30:46.616Z,23.38
2017-03-23T14:31:55.670Z,23.77
2017-03-23T14:33:04.696Z,23.38
2017-03-23T14:34:13.526Z,23.68
2017-03-23T14:35:22.308Z,23.68
2017-03-23T14:36:31.401Z,23.68
2017-03-23T14:37:40.489Z,23.27
2017-03-23T14:38:49.273Z,23.86
2017-03-23T14:39:58.047Z,23.76
2017-03-23T14:41:07.129Z,23.57
2017-03-23T14:42:16.217Z,23.47
2017-03-23T14:43:25.232Z,23.66
2017-03-23T14:44:33.983Z,23.76
2017-03-23T14:45:42.755Z,23.66
2017-03-23T14:46:51.537Z,23.66
2017-03-23T14:48:00.320Z,23.57
2017-03-23T14:49:09.402Z,24.15
2017-03-23T14:50:18.183Z,24.24
2017-03-23T14:51:26.967Z,24.24
2017-03-23T14:52:35.750Z,24.24
2017-03-23T14:53:44.539Z,24.44
2017-03-23T14:54:53.290Z,24.33